Time;durP1;ratioP1;P1;durP2;ratioP2;P2;SDS_P1;SDS_P2;PMS_P1;PMS_P2;Temp;Humidity;BMP_temperature;BMP_pressure;BME280_temperature;BME280_humidity;BME280_pressure;Samples;Min_cycle;Max_cycle;Signal;HPM_P1;HPM_P2
2022/01/09 00:00:07;;;;;;;0.40;0.40;;;;;;;;;;4933263;29;20053;-92
2022/01/09 00:02:33;;;;;;;1.38;0.82;;;;;;;;;;4930218;29;20047;-90
2022/01/09 00:04:59;;;;;;;0.63;0.63;;;;;;;;;;4924208;29;20040;-92
2022/01/09 00:07:25;;;;;;;5.80;0.75;;;;;;;;;;4926789;29;20028;-92
2022/01/09 00:09:51;;;;;;;2.55;0.57;;;;;;;;;;4923912;29;20028;-92
2022/01/09 00:12:17;;;;;;;1.13;1.02;;;;;;;;;;4924385;29;20060;-91
2022/01/09 00:14:43;;;;;;;1.23;0.75;;;;;;;;;;4929094;29;20066;-91
2022/01/09 00:17:09;;;;;;;0.60;0.60;;;;;;;;;;4925753;29;20023;-92
2022/01/09 00:19:35;;;;;;;1.92;0.63;;;;;;;;;;4931197;29;20047;-91
2022/01/09 00:22:01;;;;;;;1.27;0.80;;;;;;;;;;4926398;29;20036;-91
2022/01/09 00:24:27;;;;;;;5.88;2.33;;;;;;;;;;4930330;29;20039;-90
2022/01/09 00:26:53;;;;;;;6.80;1.10;;;;;;;;;;4930574;29;20028;-91
2022/01/09 00:29:19;;;;;;;1.52;0.75;;;;;;;;;;4931445;29;20512;-91
2022/01/09 00:31:45;;;;;;;2.60;0.82;;;;;;;;;;4931451;29;20110;-92
2022/01/09 00:34:11;;;;;;;18.27;3.03;;;;;;;;;;4923121;29;20090;-91
2022/01/09 00:36:37;;;;;;;1.08;0.77;;;;;;;;;;4924645;29;20579;-92
2022/01/09 00:39:03;;;;;;;1.90;0.63;;;;;;;;;;4929116;29;20115;-91
2022/01/09 00:41:29;;;;;;;11.25;1.33;;;;;;;;;;4930920;29;20035;-91
2022/01/09 00:43:55;;;;;;;11.68;1.35;;;;;;;;;;4927144;29;20046;-92
2022/01/09 00:46:22;;;;;;;1.50;0.93;;;;;;;;;;4927070;29;20516;-91
2022/01/09 00:48:48;;;;;;;1.08;0.43;;;;;;;;;;4923375;29;20039;-94
2022/01/09 00:51:14;;;;;;;1.10;0.73;;;;;;;;;;4933496;29;20098;-92
2022/01/09 00:53:40;;;;;;;0.40;0.40;;;;;;;;;;4930468;29;20481;-92
2022/01/09 00:56:06;;;;;;;0.30;0.30;;;;;;;;;;4927768;29;20079;-92
2022/01/09 00:58:32;;;;;;;0.30;0.30;;;;;;;;;;4926157;29;20600;-93
2022/01/09 01:00:59;;;;;;;0.40;0.40;;;;;;;;;;4927127;29;20110;-95
2022/01/09 01:03:25;;;;;;;3.22;1.25;;;;;;;;;;4930537;29;20400;-94
2022/01/09 01:05:51;;;;;;;18.02;1.95;;;;;;;;;;4930855;29;20040;-92
2022/01/09 01:08:18;;;;;;;0.85;0.40;;;;;;;;;;4928299;29;20671;-93
2022/01/09 01:10:44;;;;;;;4.05;0.40;;;;;;;;;;4921145;29;20808;-93
2022/01/09 01:13:10;;;;;;;0.50;0.50;;;;;;;;;;4924484;29;20071;-90
2022/01/09 01:15:36;;;;;;;0.30;0.30;;;;;;;;;;4928658;29;20063;-93
2022/01/09 01:18:02;;;;;;;0.85;0.38;;;;;;;;;;4929651;29;20039;-91
2022/01/09 01:20:30;;;;;;;0.30;0.30;;;;;;;;;;4923389;29;20051;-92
2022/01/09 01:22:58;;;;;;;0.47;0.47;;;;;;;;;;4931721;29;20493;-91
2022/01/09 01:25:24;;;;;;;0.30;0.30;;;;;;;;;;4924851;29;20107;-89
2022/01/09 01:27:50;;;;;;;1.05;0.70;;;;;;;;;;4927743;29;20066;-91
2022/01/09 01:30:16;;;;;;;0.80;0.73;;;;;;;;;;4924799;29;20405;-92
2022/01/09 01:32:43;;;;;;;1.67;0.60;;;;;;;;;;4928473;29;20777;-91
2022/01/09 01:35:09;;;;;;;5.00;0.60;;;;;;;;;;4927957;29;20066;-91
2022/01/09 01:37:38;;;;;;;5.90;1.20;;;;;;;;;;4926866;29;20031;-90
2022/01/09 01:40:09;;;;;;;1.38;0.77;;;;;;;;;;4910477;29;20040;-90
2022/01/09 01:42:35;;;;;;;5.68;1.15;;;;;;;;;;4929804;29;20028;-91
2022/01/09 01:45:01;;;;;;;3.97;0.85;;;;;;;;;;4931342;29;20031;-91
2022/01/09 01:47:27;;;;;;;2.83;0.88;;;;;;;;;;4926608;29;20517;-91
2022/01/09 01:49:53;;;;;;;1.40;0.68;;;;;;;;;;4929446;29;20047;-91
2022/01/09 01:52:28;;;;;;;0.70;0.70;;;6.40;90.90;;;;;;4932496;29;20035;-92
2022/01/09 01:54:54;;;;;;;0.65;0.57;;;;;;;;;;4912005;29;20051;-92
2022/01/09 01:57:20;;;;;;;1.00;0.50;;;;;;;;;;4928267;29;20067;-90
2022/01/09 01:59:46;;;;;;;0.75;0.50;;;;;;;;;;4930312;29;20035;-91
2022/01/09 02:02:12;;;;;;;0.40;0.40;;;;;;;;;;4923686;29;20437;-91
2022/01/09 02:04:39;;;;;;;3.30;0.50;;;;;;;;;;4927237;29;20389;-90
2022/01/09 02:07:06;;;;;;;2.67;0.68;;;;;;;;;;4919083;29;20027;-92
2022/01/09 02:09:33;;;;;;;1.25;0.57;;;;;;;;;;4926825;29;20032;-91
2022/01/09 02:11:59;;;;;;;0.30;0.30;;;;;;;;;;4930827;29;20024;-92
2022/01/09 02:14:25;;;;;;;1.38;1.05;;;;;;;;;;4925925;29;20083;-93
2022/01/09 02:16:52;;;;;;;1.60;0.68;;;;;;;;;;4916940;29;20032;-89
2022/01/09 02:19:21;;;;;;;2.50;0.50;;;6.60;91.00;;;;;;4921444;29;20040;-92
2022/01/09 02:21:47;;;;;;;0.60;0.60;;;;;;;;;;4925609;29;20042;-92
2022/01/09 02:24:13;;;;;;;16.10;1.13;;;;;;;;;;4930574;29;20036;-92
2022/01/09 02:26:39;;;;;;;6.53;0.63;;;;;;;;;;4925633;29;20042;-92
2022/01/09 02:29:06;;;;;;;0.93;0.90;;;6.50;92.30;;;;;;4926156;29;20091;-92
2022/01/09 02:31:33;;;;;;;1.45;1.08;;;;;;;;;;4908053;29;20462;-92
2022/01/09 02:33:59;;;;;;;0.52;0.52;;;;;;;;;;4932420;29;20046;-93
2022/01/09 02:36:25;;;;;;;5.15;0.82;;;;;;;;;;4919929;29;20115;-93
2022/01/09 02:38:51;;;;;;;0.85;0.50;;;;;;;;;;4925725;29;20153;-92
2022/01/09 02:41:18;;;;;;;1.17;0.40;;;;;;;;;;4928573;29;20067;-92
2022/01/09 02:43:44;;;;;;;2.35;0.85;;;;;;;;;;4928007;29;20052;-93
2022/01/09 02:46:53;;;;;;;1.88;0.50;;;;;;;;;;4926301;29;20402;-92
2022/01/09 02:49:05;;;;;;;1.55;0.63;;;6.50;91.90;;;;;;4921656;29;20065;-91
2022/01/09 02:51:31;;;;;;;0.57;0.57;;;;;;;;;;4913916;29;20028;-92
2022/01/09 02:55:03;;;;;;;6.95;2.40;;;;;;;;;;4931639;29;20039;-92
2022/01/09 02:56:43;;;;;;;3.03;0.65;;;;;;;;;;4920643;29;20040;-91
2022/01/09 02:59:09;;;;;;;0.50;0.50;;;;;;;;;;4926711;29;20082;-92
2022/01/09 03:01:35;;;;;;;0.82;0.82;;;;;;;;;;4928065;29;21237;-92
2022/01/09 03:04:01;;;;;;;1.55;0.63;;;;;;;;;;4928621;29;20023;-92
2022/01/09 03:06:27;;;;;;;0.55;0.55;;;;;;;;;;4926092;29;20040;-91
2022/01/09 03:08:55;;;;;;;0.57;0.57;;;;;;;;;;4929676;29;20039;-90
2022/01/09 03:11:21;;;;;;;0.80;0.57;;;;;;;;;;4926176;29;20035;-94
2022/01/09 03:13:47;;;;;;;1.08;1.00;;;;;;;;;;4922817;29;20024;-92
2022/01/09 03:16:13;;;;;;;0.45;0.45;;;;;;;;;;4925519;29;20501;-91
2022/01/09 03:18:39;;;;;;;2.25;0.65;;;;;;;;;;4921834;29;20039;-91
2022/01/09 03:21:05;;;;;;;0.57;0.57;;;;;;;;;;4929807;29;20044;-92
2022/01/09 03:23:31;;;;;;;4.85;0.88;;;;;;;;;;4927096;29;20028;-92
2022/01/09 03:25:57;;;;;;;2.28;0.55;;;;;;;;;;4920633;29;20039;-91
2022/01/09 03:28:23;;;;;;;2.13;0.98;;;;;;;;;;4922404;29;20111;-92
2022/01/09 03:30:49;;;;;;;2.13;0.88;;;;;;;;;;4925645;29;20186;-92
2022/01/09 03:33:15;;;;;;;7.63;1.00;;;;;;;;;;4922960;29;20573;-91
2022/01/09 03:35:40;;;;;;;10.68;1.08;;;;;;;;;;4924605;29;20047;-92
2022/01/09 03:38:07;;;;;;;5.03;0.60;;;;;;;;;;4925650;29;20028;-91
2022/01/09 03:40:33;;;;;;;2.75;2.65;;;;;;;;;;4922437;29;20509;-92
2022/01/09 03:42:59;;;;;;;4.63;0.52;;;;;;;;;;4929495;29;20111;-92
2022/01/09 03:45:25;;;;;;;5.68;1.60;;;6.90;85.40;;;;;;4926648;29;20040;-92
2022/01/09 03:47:51;;;;;;;5.50;0.70;;;;;;;;;;4928976;29;20039;-93
2022/01/09 03:50:17;;;;;;;0.43;0.43;;;;;;;;;;4928637;29;20054;-92
2022/01/09 03:52:46;;;;;;;8.40;1.15;;;;;;;;;;4928654;29;20058;-92
2022/01/09 03:55:13;;;;;;;1.90;0.68;;;;;;;;;;4932679;29;20038;-93
2022/01/09 03:57:39;;;;;;;1.45;0.50;;;;;;;;;;4927351;29;20028;-93
2022/01/09 04:00:06;;;;;;;0.52;0.52;;;;;;;;;;4933336;29;20090;-92
2022/01/09 04:02:33;;;;;;;1.05;0.45;;;;;;;;;;4930236;29;20052;-92
2022/01/09 04:04:59;;;;;;;3.42;0.57;;;;;;;;;;4932080;29;20040;-93
2022/01/09 04:07:25;;;;;;;2.42;0.88;;;;;;;;;;4927219;29;20027;-91
2022/01/09 04:09:51;;;;;;;8.85;1.05;;;;;;;;;;4930332;29;20028;-91
2022/01/09 04:12:18;;;;;;;3.92;0.85;;;;;;;;;;4932917;29;20028;-93
2022/01/09 04:14:47;;;;;;;;;;;6.60;85.00;;;;;;4932870;29;20024;-92
2022/01/09 04:17:23;;;;;;;2.80;0.77;;;6.60;84.50;;;;;;4910781;29;19962;-93
2022/01/09 04:19:49;;;;;;;0.90;0.70;;;;;;;;;;4910803;29;20517;-92
2022/01/09 04:22:15;;;;;;;0.50;0.50;;;;;;;;;;4931508;29;20051;-93
2022/01/09 04:24:41;;;;;;;14.35;1.50;;;;;;;;;;4927568;29;20051;-92
2022/01/09 04:27:07;;;;;;;0.95;0.65;;;;;;;;;;4927843;29;20032;-91
2022/01/09 04:29:33;;;;;;;11.38;1.40;;;;;;;;;;4930174;29;20035;-92
2022/01/09 04:31:59;;;;;;;3.97;0.90;;;;;;;;;;4924051;29;20407;-91
2022/01/09 04:34:25;;;;;;;12.10;1.00;;;;;;;;;;4925248;29;20044;-91
2022/01/09 04:36:51;;;;;;;1.13;0.77;;;;;;;;;;4924199;29;20028;-93
2022/01/09 04:39:17;;;;;;;4.47;1.25;;;;;;;;;;4929265;29;20146;-93
2022/01/09 04:41:43;;;;;;;0.55;0.52;;;;;;;;;;4934291;29;20055;-93
2022/01/09 04:44:09;;;;;;;4.57;1.60;;;;;;;;;;4934201;29;20032;-92
2022/01/09 04:46:44;;;;;;;0.60;0.60;;;;;;;;;;4924402;29;20028;-92
2022/01/09 04:49:11;;;;;;;2.38;1.85;;;;;;;;;;4927872;29;20083;-92
2022/01/09 04:51:37;;;;;;;4.85;0.70;;;;;;;;;;4931772;29;20963;-93
2022/01/09 04:54:04;;;;;;;0.70;0.70;;;;;;;;;;4932607;29;20036;-93
2022/01/09 04:56:30;;;;;;;0.60;0.52;;;;;;;;;;4931212;29;20067;-92
2022/01/09 04:58:56;;;;;;;1.42;0.63;;;;;;;;;;4927133;29;20043;-94
2022/01/09 05:01:22;;;;;;;4.03;0.70;;;;;;;;;;4927275;29;20050;-93
2022/01/09 05:03:48;;;;;;;3.60;0.65;;;;;;;;;;4929987;29;20027;-93
2022/01/09 05:06:14;;;;;;;1.67;1.00;;;;;;;;;;4924343;29;20568;-92
2022/01/09 05:08:40;;;;;;;0.68;0.68;;;;;;;;;;4932256;29;20034;-92
2022/01/09 05:11:06;;;;;;;0.50;0.40;;;;;;;;;;4929722;29;20027;-92
2022/01/09 05:13:32;;;;;;;3.75;1.17;;;;;;;;;;4927857;29;20067;-92
2022/01/09 05:16:00;;;;;;;1.13;0.95;;;;;;;;;;4927227;29;20588;-93
2022/01/09 05:18:26;;;;;;;0.73;0.73;;;;;;;;;;4930137;29;20032;-93
2022/01/09 05:20:52;;;;;;;4.55;0.88;;;;;;;;;;4931560;29;20130;-92
2022/01/09 05:23:18;;;;;;;4.13;0.82;;;;;;;;;;4933568;29;20048;-92
2022/01/09 05:25:44;;;;;;;10.25;1.42;;;;;;;;;;4925296;29;20081;-93
2022/01/09 05:28:10;;;;;;;0.68;0.68;;;;;;;;;;4924341;29;20397;-92
2022/01/09 05:30:36;;;;;;;5.03;1.27;;;;;;;;;;4928419;29;20449;-93
2022/01/09 05:33:02;;;;;;;3.70;2.17;;;;;;;;;;4926867;29;20028;-93
2022/01/09 05:35:28;;;;;;;4.15;0.77;;;;;;;;;;4924457;29;20050;-92
2022/01/09 05:37:54;;;;;;;7.97;1.17;;;;;;;;;;4927494;29;20497;-93
2022/01/09 05:40:20;;;;;;;3.20;1.00;;;;;;;;;;4929152;29;20051;-92
2022/01/09 05:42:47;;;;;;;3.33;0.88;;;;;;;;;;4926695;29;20032;-92
2022/01/09 05:45:16;;;;;;;3.88;0.70;;;;;;;;;;4930623;29;20064;-92
2022/01/09 05:47:42;;;;;;;1.33;1.17;;;;;;;;;;4927425;29;20032;-92
2022/01/09 05:50:08;;;;;;;7.65;1.48;;;;;;;;;;4925219;29;20031;-93
2022/01/09 05:52:34;;;;;;;4.60;1.20;;;;;;;;;;4925190;29;20024;-93
2022/01/09 05:55:00;;;;;;;5.35;0.80;;;;;;;;;;4932946;29;20056;-92
2022/01/09 05:57:26;;;;;;;7.53;1.80;;;;;;;;;;4921894;29;20044;-91
2022/01/09 05:59:52;;;;;;;3.63;1.38;;;;;;;;;;4929421;29;20046;-92
2022/01/09 06:02:18;;;;;;;7.68;1.48;;;;;;;;;;4923827;29;20058;-93
2022/01/09 06:04:44;;;;;;;7.40;1.08;;;;;;;;;;4924455;29;20027;-92
2022/01/09 06:07:10;;;;;;;13.57;3.60;;;;;;;;;;4922815;29;20031;-92
2022/01/09 06:09:36;;;;;;;0.45;0.45;;;;;;;;;;4927330;29;20481;-93
2022/01/09 06:12:02;;;;;;;11.07;1.05;;;;;;;;;;4931780;29;20059;-91
2022/01/09 06:14:28;;;;;;;0.63;0.63;;;;;;;;;;4930432;29;20035;-92
2022/01/09 06:16:54;;;;;;;3.58;2.13;;;;;;;;;;4926078;29;20371;-90
2022/01/09 06:19:20;;;;;;;11.05;2.00;;;;;;;;;;4924967;29;20037;-92
2022/01/09 06:21:46;;;;;;;10.88;1.60;;;;;;;;;;4928773;29;20079;-91
2022/01/09 06:24:12;;;;;;;6.40;0.88;;;;;;;;;;4929729;29;20035;-92
2022/01/09 06:26:38;;;;;;;9.68;2.75;;;;;;;;;;4922905;29;20027;-92
2022/01/09 06:29:04;;;;;;;12.85;1.90;;;;;;;;;;4927019;29;20039;-91
2022/01/09 06:31:30;;;;;;;2.38;2.08;;;;;;;;;;4923314;29;20032;-92
2022/01/09 06:33:56;;;;;;;5.13;1.33;;;;;;;;;;4925759;29;20110;-93
2022/01/09 06:36:22;;;;;;;11.55;1.25;;;;;;;;;;4919991;29;20115;-92
2022/01/09 06:38:48;;;;;;;2.00;0.60;;;;;;;;;;4926944;29;20084;-91
2022/01/09 06:41:14;;;;;;;7.97;1.02;;;;;;;;;;4927605;29;20049;-92
2022/01/09 06:43:40;;;;;;;9.23;1.50;;;;;;;;;;4930777;29;20402;-92
2022/01/09 06:46:06;;;;;;;1.95;1.00;;;;;;;;;;4926467;29;20529;-93
2022/01/09 06:48:32;;;;;;;0.77;0.68;;;;;;;;;;4928460;29;20166;-93
2022/01/09 06:50:58;;;;;;;4.43;0.90;;;;;;;;;;4932878;29;20078;-92
2022/01/09 06:53:24;;;;;;;4.47;0.75;;;;;;;;;;4930647;29;20031;-91
2022/01/09 06:55:51;;;;;;;9.07;1.27;;;;;;;;;;4923270;29;20039;-92
2022/01/09 06:58:18;;;;;;;2.17;0.70;;;;;;;;;;4930196;29;20071;-93
2022/01/09 07:00:45;;;;;;;;;;;6.40;81.90;;;;;;4927842;29;20048;-92
2022/01/09 07:03:12;;;;;;;0.73;0.63;;;;;;;;;;4906342;29;19973;-92
2022/01/09 07:05:38;;;;;;;0.70;0.70;;;;;;;;;;4917030;29;20028;-92
2022/01/09 07:08:04;;;;;;;0.90;0.43;;;;;;;;;;4921572;29;20025;-93
2022/01/09 07:10:31;;;;;;;1.65;1.05;;;;;;;;;;4924813;29;20028;-92
2022/01/09 07:12:57;;;;;;;4.30;1.15;;;;;;;;;;4918946;29;20028;-93
2022/01/09 07:15:23;;;;;;;7.32;1.17;;;;;;;;;;4900932;29;20040;-93
2022/01/09 07:17:49;;;;;;;0.82;0.60;;;;;;;;;;4930215;29;20035;-91
2022/01/09 07:20:15;;;;;;;1.33;0.85;;;;;;;;;;4927581;29;20054;-91
2022/01/09 07:22:41;;;;;;;1.95;0.88;;;;;;;;;;4927847;29;20028;-93
2022/01/09 07:25:07;;;;;;;2.33;1.30;;;;;;;;;;4923678;29;20074;-92
2022/01/09 07:27:34;;;;;;;7.75;2.53;;;;;;;;;;4926628;29;20382;-93
2022/01/09 07:30:00;;;;;;;4.20;1.58;;;;;;;;;;4928038;29;20068;-91
2022/01/09 07:32:26;;;;;;;0.77;0.75;;;;;;;;;;4919498;29;20485;-92
2022/01/09 07:34:53;;;;;;;4.35;1.52;;;;;;;;;;4928229;29;20030;-92
2022/01/09 07:37:19;;;;;;;3.85;2.10;;;;;;;;;;4922477;29;20825;-92
2022/01/09 07:39:45;;;;;;;12.88;3.28;;;;;;;;;;4925149;29;20040;-91
2022/01/09 07:42:11;;;;;;;6.05;1.52;;;;;;;;;;4926899;29;20774;-92
2022/01/09 07:44:37;;;;;;;11.65;1.55;;;;;;;;;;4928752;29;20028;-93
2022/01/09 07:47:03;;;;;;;1.52;0.90;;;;;;;;;;4928027;29;20035;-92
2022/01/09 07:49:29;;;;;;;1.60;1.38;;;;;;;;;;4924045;29;20083;-92
2022/01/09 07:51:55;;;;;;;4.80;1.13;;;;;;;;;;4926341;29;20040;-92
2022/01/09 07:54:21;;;;;;;18.38;1.70;;;;;;;;;;4925491;29;20032;-92
2022/01/09 07:56:48;;;;;;;2.10;1.65;;;;;;;;;;4918310;29;20360;-91
2022/01/09 07:59:14;;;;;;;5.47;2.15;;;;;;;;;;4920196;29;20032;-92
2022/01/09 08:01:40;;;;;;;1.52;0.82;;;;;;;;;;4918459;29;20056;-92
2022/01/09 08:04:06;;;;;;;0.88;0.63;;;;;;;;;;4918409;29;20046;-90
2022/01/09 08:06:32;;;;;;;10.75;1.30;;;;;;;;;;4900704;29;20125;-92
2022/01/09 08:08:58;;;;;;;7.47;1.40;;;;;;;;;;4924846;29;20032;-92
2022/01/09 08:11:24;;;;;;;5.75;1.40;;;;;;;;;;4925345;29;20111;-91
2022/01/09 08:13:51;;;;;;;2.40;1.90;;;;;;;;;;4926658;29;20035;-91
2022/01/09 08:16:17;;;;;;;4.28;1.38;;;;;;;;;;4925610;29;20032;-93
2022/01/09 08:18:43;;;;;;;22.42;1.98;;;;;;;;;;4928207;29;20044;-91
2022/01/09 08:21:08;;;;;;;1.67;1.50;;;;;;;;;;4912998;29;20079;-92
2022/01/09 08:23:36;;;;;;;17.02;3.78;;;;;;;;;;4929026;29;20016;-95
2022/01/09 08:26:05;;;;;;;;;;;6.70;85.60;;;;;;4927818;29;20035;-96
2022/01/09 08:31:29;;;;;;;9.82;3.05;;;;;;;;;;5268784;23;20065;-96
2022/01/09 08:34:37;;;;;;;12.63;5.95;;;;;;;;;;4992453;28;20385;-96
2022/01/09 08:37:24;;;;;;;12.30;2.15;;;;;;;;;;5010504;28;20112;-96
2022/01/09 08:39:54;;;;;;;1.80;1.08;;;;;;;;;;5011256;28;20049;-97
2022/01/09 08:42:29;;;;;;;6.75;2.63;;;;;;;;;;4981908;28;20090;-96
2022/01/09 08:44:56;;;;;;;10.75;1.83;;;;;;;;;;4994787;28;20061;-96
2022/01/09 08:47:39;;;;;;;12.10;2.25;;;;;;;;;;4992904;28;20439;-96
2022/01/09 08:50:31;;;;;;;21.83;4.65;;;;;;;;;;4989046;28;20113;-96
2022/01/09 08:53:04;;;;;;;13.00;4.47;;;;;;;;;;4992585;28;20043;-96
2022/01/09 08:55:31;;;;;;;10.52;2.20;;;;;;;;;;4988495;28;20035;-96
2022/01/09 08:58:13;;;;;;;3.65;1.48;;;;;;;;;;4990109;28;20035;-96
2022/01/09 09:00:43;;;;;;;6.13;1.20;;;;;;;;;;5000524;23;20055;-96
2022/01/09 09:03:28;;;;;;;14.48;1.70;;;;;;;;;;4945786;29;20047;-96
2022/01/09 09:05:57;;;;;;;1.52;1.15;;;;;;;;;;4952455;29;20039;-96
2022/01/09 09:08:35;;;;;;;5.60;1.13;;;;;;;;;;4946481;29;20044;-96
2022/01/09 09:11:05;;;;;;;0.70;0.60;;;;;;;;;;4932502;29;20114;-96
2022/01/09 09:13:35;;;;;;;1.23;1.00;;;;;;;;;;4951691;29;20032;-96
2022/01/09 09:16:18;;;;;;;3.60;1.40;;;;;;;;;;4913932;29;20047;-96
2022/01/09 09:18:52;;;;;;;7.85;1.38;;;;;;;;;;4959537;29;20064;-96
2022/01/09 09:21:22;;;;;;;5.68;1.60;;;;;;;;;;4947910;29;20103;-96
2022/01/09 09:23:50;;;;;;;1.95;0.75;;;;;;;;;;4958332;29;20043;-96
2022/01/09 09:26:25;;;;;;;0.93;0.60;;;;;;;;;;4936964;29;20046;-96
2022/01/09 09:29:00;;;;;;;5.85;1.25;;;;;;;;;;4947758;29;20047;-96
2022/01/09 09:31:42;;;;;;;1.85;0.82;;;;;;;;;;4961701;29;20039;-96
2022/01/09 09:34:18;;;;;;;1.40;1.23;;;;;;;;;;4963310;29;20028;-96
2022/01/09 09:36:47;;;;;;;0.53;0.47;;;;;;;;;;4905793;29;20493;-96
2022/01/09 09:39:29;;;;;;;2.10;0.70;;;;;;;;;;4944878;28;20279;-96
2022/01/09 09:42:29;;;;;;;4.30;1.33;;;;;;;;;;4963325;29;20051;-96
2022/01/09 09:45:00;;;;;;;3.65;0.70;;;;;;;;;;4899310;29;20035;-96
2022/01/09 09:47:36;;;;;;;1.58;0.93;;;;;;;;;;4955279;29;20096;-96
2022/01/09 09:50:08;;;;;;;0.85;0.63;;;;;;;;;;4947893;29;20046;-96
2022/01/09 09:52:36;;;;;;;1.27;0.80;;;;;;;;;;4954058;29;20095;-96
2022/01/09 09:55:25;;;;;;;14.40;1.10;;;;;;;;;;4968137;29;20523;-96
2022/01/09 09:58:18;;;;;;;0.43;0.43;;;;;;;;;;4878778;29;20030;-96
2022/01/09 10:01:09;;;;;;;4.38;1.50;;;;;;;;;;4849967;29;20049;-96
2022/01/09 10:04:45;;;;;;;8.48;1.35;;;;;;;;;;4860971;29;20034;-96
2022/01/09 10:08:28;;;;;;;0.63;0.63;;;6.60;92.50;;;;;;4790155;30;20044;-96
2022/01/09 10:37:23;;;;;;;2.17;1.40;;;;;;;;;;5838733;23;20090;-90
2022/01/09 10:39:49;;;;;;;2.47;0.93;;;;;;;;;;4975775;28;20127;-90
2022/01/09 10:42:15;;;;;;;5.18;2.13;;;;;;;;;;4970289;28;20086;-91
2022/01/09 10:44:43;;;;;;;1.70;1.17;;;;;;;;;;4979767;28;20447;-90
2022/01/09 10:47:12;;;;;;;;;;;6.90;92.90;;;;;;4960153;28;20026;-90
2022/01/09 10:49:40;;;;;;;0.88;0.85;;;;;;;;;;4979829;28;20000;-89
2022/01/09 10:52:18;;;;;;;2.50;1.45;;;;;;;;;;4965881;28;20050;-89
2022/01/09 10:54:46;;;;;;;1.48;1.38;;;;;;;;;;4978525;28;20042;-89
2022/01/09 10:57:14;;;;;;;3.17;2.08;;;;;;;;;;4962016;28;20025;-89
2022/01/09 10:59:40;;;;;;;2.10;1.02;;;;;;;;;;4988988;28;20531;-93
2022/01/09 11:02:07;;;;;;;2.20;1.48;;;;;;;;;;4984732;28;20023;-90
2022/01/09 11:04:33;;;;;;;2.55;1.60;;;;;;;;;;4972554;28;20045;-90
2022/01/09 11:07:00;;;;;;;6.65;2.35;;;;;;;;;;4959383;28;20058;-89
2022/01/09 11:09:28;;;;;;;12.15;3.22;;;;;;;;;;4977074;28;20030;-91
2022/01/09 11:11:55;;;;;;;9.35;1.45;;;;;;;;;;4987711;28;20500;-89
2022/01/09 11:14:23;;;;;;;77.25;27.30;;;;;;;;;;4982526;28;20477;-91
2022/01/09 11:16:52;;;;;;;;;;;;;;;;;;4977958;28;20043;-91
2022/01/09 11:19:27;;;;;;;16.42;5.55;;;;;;;;;;4980524;28;19941;-91
2022/01/09 11:22:01;;;;;;;6.28;1.70;;;;;;;;;;4982962;28;20042;-93
2022/01/09 11:24:49;;;;;;;4.97;3.92;;;7.90;92.80;;;;;;4961230;28;20023;-93
2022/01/09 11:27:15;;;;;;;2.38;2.08;;;;;;;;;;4967320;28;20082;-89
2022/01/09 11:29:58;;;;;;;9.02;1.98;;;8.30;91.90;;;;;;4980906;28;20424;-92
2022/01/09 11:32:43;;;;;;;3.28;1.30;;;;;;;;;;4983530;28;20558;-93
2022/01/09 11:35:18;;;;;;;2.80;1.40;;;;;;;;;;4972438;28;20019;-92
2022/01/09 11:38:02;;;;;;;7.13;2.17;;;;;;;;;;4976831;28;20054;-90
2022/01/09 11:40:29;;;;;;;1.55;1.15;;;;;;;;;;4980216;28;20030;-92
2022/01/09 11:42:55;;;;;;;;;;;;;;;;;;4976197;28;20085;-93
2022/01/09 11:45:39;;;;;;;5.25;1.38;;;;;;;;;;4970197;28;19918;-92
2022/01/09 11:48:06;;;;;;;3.95;0.90;;;;;;;;;;4980365;28;20112;-92
2022/01/09 11:50:33;;;;;;;1.33;0.60;;;;;;;;;;4977890;28;20023;-93
2022/01/09 11:53:01;;;;;;;2.42;1.40;;;9.10;88.30;;;;;;4972628;28;20046;-92
2022/01/09 11:55:35;;;;;;;5.07;1.50;;;;;;;;;;4977167;28;20054;-92
2022/01/09 11:58:03;;;;;;;1.95;1.13;;;;;;;;;;4982526;28;20031;-92
2022/01/09 12:00:32;;;;;;;3.13;1.52;;;;;;;;;;4981557;28;20113;-92
2022/01/09 12:02:58;;;;;;;5.60;4.05;;;;;;;;;;4972758;28;20090;-92
2022/01/09 12:05:25;;;;;;;7.05;1.48;;;;;;;;;;4977236;28;20096;-92
2022/01/09 12:07:54;;;;;;;1.60;1.00;;;;;;;;;;4982520;28;20031;-94
2022/01/09 12:10:29;;;;;;;14.70;2.88;;;;;;;;;;4982865;28;20038;-91
2022/01/09 12:12:55;;;;;;;6.57;1.02;;;;;;;;;;4967822;28;20019;-93
2022/01/09 12:15:33;;;;;;;2.20;0.73;;;;;;;;;;4965522;28;20281;-92
2022/01/09 12:18:02;;;;;;;1.17;0.75;;;;;;;;;;4984726;28;20111;-91
2022/01/09 12:20:28;;;;;;;7.70;1.45;;;;;;;;;;4979520;28;20061;-91
2022/01/09 12:23:02;;;;;;;4.68;0.93;;;8.70;84.00;;;;;;4977772;28;20054;-92
2022/01/09 12:25:29;;;;;;;2.58;1.55;;;;;;;;;;4978543;28;20034;-91
2022/01/09 12:27:59;;;;;;;2.53;1.50;;;;;;;;;;4980796;28;20169;-92
2022/01/09 12:30:36;;;;;;;5.30;1.27;;;;;;;;;;4973821;28;20037;-93
2022/01/09 12:33:08;;;;;;;3.85;1.45;;;;;;;;;;4975106;28;20035;-92
2022/01/09 12:35:34;;;;;;;5.30;1.35;;;;;;;;;;4956337;28;20022;-93
2022/01/09 12:38:01;;;;;;;6.57;2.28;;;;;;;;;;4971084;28;20046;-92
2022/01/09 12:40:29;;;;;;;5.90;1.92;;;8.40;86.60;;;;;;4977788;28;20046;-92
2022/01/09 12:42:57;;;;;;;5.20;1.67;;;8.40;87.90;;;;;;4958290;28;20034;-91
2022/01/09 12:45:25;;;;;;;9.18;1.70;;;;;;;;;;4956536;28;20031;-93
2022/01/09 12:47:52;;;;;;;1.20;1.10;;;;;;;;;;4981592;28;20038;-93
2022/01/09 12:50:24;;;;;;;3.80;1.90;;;;;;;;;;4979452;28;20027;-92
2022/01/09 12:52:50;;;;;;;7.25;1.20;;;;;;;;;;4979774;28;20055;-91
2022/01/09 12:55:16;;;;;;;6.65;1.30;;;;;;;;;;4968572;28;20031;-93
2022/01/09 12:57:55;;;;;;;3.28;1.73;;;8.10;90.00;;;;;;4952540;28;20035;-93
2022/01/09 13:00:28;;;;;;;1.95;1.55;;;;;;;;;;4956661;28;20063;-93
2022/01/09 13:02:54;;;;;;;6.50;2.15;;;;;;;;;;4981598;28;20027;-92
2022/01/09 13:05:21;;;;;;;4.13;1.98;;;;;;;;;;4956528;28;20050;-91
2022/01/09 13:07:54;;;;;;;2.28;1.42;;;;;;;;;;4956632;28;20106;-92
2022/01/09 13:10:21;;;;;;;11.43;4.93;;;;;;;;;;4973062;28;20039;-92
2022/01/09 13:13:04;;;;;;;6.13;1.80;;;;;;;;;;4977546;28;20037;-92
2022/01/09 13:15:31;;;;;;;3.20;1.00;;;;;;;;;;4965969;28;20041;-92
2022/01/09 13:17:57;;;;;;;4.28;1.00;;;;;;;;;;4958845;28;20027;-93
2022/01/09 13:20:24;;;;;;;4.95;1.25;;;;;;;;;;4984597;28;20418;-91
2022/01/09 13:23:01;;;;;;;7.85;2.20;;;;;;;;;;4978199;28;20034;-90
2022/01/09 13:25:27;;;;;;;;;;;;;;;;;;4954544;28;20020;-90
2022/01/09 13:27:53;;;;;;;3.83;1.45;;;;;;;;;;4967166;28;19906;-92
2022/01/09 13:30:21;;;;;;;2.83;1.30;;;;;;;;;;4976480;28;20447;-92
2022/01/09 13:32:47;;;;;;;;;;;;;;;;;;4977320;28;20023;-91
2022/01/09 13:35:13;;;;;;;2.03;1.45;;;;;;;;;;4969169;28;19933;-91
2022/01/09 13:37:40;;;;;;;5.63;1.58;;;;;;;;;;4958676;28;20039;-92
2022/01/09 13:40:07;;;;;;;0.80;0.80;;;;;;;;;;4957588;28;20129;-93
2022/01/09 13:42:33;;;;;;;4.60;1.95;;;;;;;;;;4953557;28;20027;-92
2022/01/09 13:45:10;;;;;;;3.08;1.30;;;;;;;;;;4975836;28;20076;-92
2022/01/09 13:47:46;;;;;;;2.53;1.43;;;;;;;;;;4973839;28;20488;-91
2022/01/09 13:50:13;;;;;;;8.60;3.97;;;;;;;;;;4951054;28;20135;-90
2022/01/09 13:52:39;;;;;;;0.98;0.93;;;;;;;;;;4959469;28;20077;-90
2022/01/09 13:55:07;;;;;;;1.90;1.00;;;;;;;;;;4956969;28;20065;-92
2022/01/09 13:57:46;;;;;;;2.55;1.13;;;;;;;;;;4968667;28;20085;-90
2022/01/09 14:00:13;;;;;;;3.22;1.42;;;;;;;;;;4960461;28;20102;-92
2022/01/09 14:02:40;;;;;;;4.15;1.10;;;;;;;;;;4973017;28;20035;-93
2022/01/09 14:05:10;;;;;;;1.33;1.23;;;;;;;;;;4956283;28;20077;-92
2022/01/09 14:07:38;;;;;;;4.32;1.08;;;;;;;;;;4970404;28;20483;-93
2022/01/09 14:10:05;;;;;;;8.95;2.40;;;;;;;;;;4973047;28;20121;-90
2022/01/09 14:12:34;;;;;;;1.30;1.15;;;;;;;;;;4965248;28;20130;-90
2022/01/09 14:15:10;;;;;;;5.60;1.48;;;;;;;;;;4974759;28;20037;-93
2022/01/09 14:17:36;;;;;;;8.68;0.98;;;;;;;;;;4955357;28;20110;-91
2022/01/09 14:20:14;;;;;;;2.72;1.20;;;;;;;;;;4964838;28;20039;-91
2022/01/09 14:22:47;;;;;;;8.82;1.17;;;;;;;;;;4973263;28;20023;-91
2022/01/09 14:25:33;;;;;;;3.83;1.50;;;;;;;;;;4980389;28;20519;-91
2022/01/09 14:28:02;;;;;;;4.05;1.05;;;;;;;;;;4971270;28;20022;-90
2022/01/09 14:30:30;;;;;;;2.63;0.82;;;;;;;;;;4967140;28;20041;-91
2022/01/09 14:33:05;;;;;;;2.10;1.48;;;;;;;;;;4965441;28;20074;-91
2022/01/09 14:35:34;;;;;;;1.23;0.65;;;;;;;;;;4959010;28;20034;-90
2022/01/09 14:38:01;;;;;;;5.80;1.67;;;;;;;;;;4965563;28;20130;-92
2022/01/09 14:40:29;;;;;;;6.32;2.15;;;;;;;;;;4974791;28;20039;-91
2022/01/09 14:42:55;;;;;;;3.85;2.15;;;;;;;;;;4979033;28;20054;-91
2022/01/09 14:45:21;;;;;;;7.75;1.58;;;;;;;;;;4975157;28;20071;-91
2022/01/09 14:47:48;;;;;;;3.08;1.38;;;;;;;;;;4962475;28;20030;-91
2022/01/09 14:50:14;;;;;;;10.75;1.50;;;;;;;;;;4977873;28;20063;-92
2022/01/09 14:52:40;;;;;;;1.95;1.30;;;;;;;;;;4959574;28;20174;-91
2022/01/09 14:55:08;;;;;;;12.18;1.55;;;;;;;;;;4980442;28;20110;-93
2022/01/09 14:57:35;;;;;;;3.05;1.27;;;8.00;90.50;;;;;;4958470;28;20033;-92
2022/01/09 15:00:01;;;;;;;3.30;1.60;;;;;;;;;;4963948;28;20504;-90
2022/01/09 15:02:27;;;;;;;1.50;1.40;;;;;;;;;;4974763;28;20042;-92
2022/01/09 15:04:53;;;;;;;6.57;1.23;;;;;;;;;;4979987;28;20480;-91
2022/01/09 15:07:19;;;;;;;5.10;1.77;;;;;;;;;;4970185;28;20034;-91
2022/01/09 15:09:45;;;;;;;1.23;0.93;;;;;;;;;;4962287;28;20077;-92
2022/01/09 15:12:13;;;;;;;5.53;1.85;;;;;;;;;;4977520;28;20054;-90
2022/01/09 15:14:39;;;;;;;2.03;1.20;;;;;;;;;;4976876;28;20027;-91
2022/01/09 15:17:05;;;;;;;2.83;1.40;;;;;;;;;;4973911;28;20023;-91